createdAt,value
2022-11-10T00:00:42.316Z,3.37
2022-11-10T00:03:12.396Z,2.33
2022-11-10T00:05:40.814Z,3.83
2022-11-10T00:08:13.737Z,2.53
2022-11-10T00:10:56.270Z,2.60
2022-11-10T00:13:26.623Z,2.63
2022-11-10T00:16:13.278Z,3.00
2022-11-10T00:18:41.460Z,2.93
2022-11-10T00:21:12.251Z,3.00
2022-11-10T00:23:42.088Z,1.97
2022-11-10T00:26:16.482Z,2.13
2022-11-10T00:28:45.115Z,4.63
2022-11-10T00:31:14.138Z,3.57
2022-11-10T00:33:44.671Z,4.03
2022-11-10T00:36:12.954Z,3.23
2022-11-10T00:38:42.412Z,2.33
2022-11-10T00:41:10.524Z,4.57
2022-11-10T00:43:38.689Z,2.40
2022-11-10T00:46:07.073Z,4.47
2022-11-10T00:48:35.344Z,4.87
2022-11-10T00:51:03.745Z,4.63
2022-11-10T00:53:31.831Z,6.50
2022-11-10T00:56:01.314Z,4.37
2022-11-10T00:58:29.468Z,5.07
2022-11-10T01:01:02.939Z,4.30
2022-11-10T01:03:31.161Z,2.60
2022-11-10T01:05:59.266Z,4.50
2022-11-10T01:08:27.387Z,4.63
2022-11-10T01:11:04.521Z,3.50
2022-11-10T01:13:33.477Z,7.40
2022-11-10T01:16:05.611Z,3.97
2022-11-10T01:18:34.244Z,3.17
2022-11-10T01:21:02.920Z,4.07
2022-11-10T01:23:31.175Z,6.13
2022-11-10T01:25:59.967Z,4.40
2022-11-10T01:28:30.073Z,3.83
2022-11-10T01:30:59.104Z,3.30
2022-11-10T01:33:27.573Z,5.53
2022-11-10T01:35:55.860Z,4.37
2022-11-10T01:38:24.060Z,5.27
2022-11-10T01:40:52.189Z,3.73
2022-11-10T01:43:20.759Z,2.97
2022-11-10T01:45:55.059Z,4.83
2022-11-10T01:48:34.071Z,4.83
2022-11-10T01:51:07.945Z,5.30
2022-11-10T01:53:43.122Z,5.80
2022-11-10T01:56:15.014Z,3.13
2022-11-10T01:58:50.769Z,3.27
2022-11-10T02:01:20.674Z,4.23
2022-11-10T02:03:52.624Z,3.23
2022-11-10T02:06:26.339Z,4.63
2022-11-10T02:08:56.784Z,3.27
2022-11-10T02:11:25.963Z,5.93
2022-11-10T02:13:55.020Z,6.07
2022-11-10T02:16:25.155Z,4.03
2022-11-10T02:18:53.914Z,4.17
2022-11-10T02:21:23.770Z,4.33
2022-11-10T02:23:54.268Z,5.10
2022-11-10T02:26:31.028Z,7.07
2022-11-10T02:28:59.201Z,3.87
2022-11-10T02:31:27.273Z,4.23
2022-11-10T02:33:55.451Z,5.37
2022-11-10T02:36:24.952Z,4.10
2022-11-10T02:38:53.101Z,5.40
2022-11-10T02:41:21.247Z,3.57
2022-11-10T02:43:49.882Z,4.47
2022-11-10T02:46:18.049Z,6.63
2022-11-10T02:48:46.174Z,2.83
2022-11-10T02:51:14.442Z,4.57
2022-11-10T02:53:43.895Z,5.63
2022-11-10T02:56:12.084Z,2.83
2022-11-10T02:58:40.244Z,3.90
2022-11-10T03:01:08.674Z,6.53
2022-11-10T03:03:37.099Z,3.57
2022-11-10T03:06:05.522Z,3.27
2022-11-10T03:08:33.619Z,3.03
2022-11-10T03:11:03.190Z,3.37
2022-11-10T03:13:45.303Z,4.73
2022-11-10T03:16:20.087Z,3.87
2022-11-10T03:18:48.192Z,4.47
2022-11-10T03:21:16.442Z,5.47
2022-11-10T03:23:44.530Z,4.90
2022-11-10T03:26:14.312Z,6.07
2022-11-10T03:28:42.404Z,3.60
2022-11-10T03:31:10.589Z,3.00
2022-11-10T03:33:38.679Z,3.23
2022-11-10T03:36:07.233Z,4.00
2022-11-10T03:38:35.336Z,4.87
2022-11-10T03:41:18.678Z,5.63
2022-11-10T03:43:49.824Z,3.87
2022-11-10T03:46:18.600Z,4.93
2022-11-10T03:48:53.190Z,4.23
2022-11-10T03:51:22.563Z,3.80
2022-11-10T03:53:50.699Z,5.03
2022-11-10T03:56:19.094Z,4.07
2022-11-10T03:58:48.609Z,5.77
2022-11-10T04:01:17.055Z,6.13
2022-11-10T04:03:50.150Z,5.23
2022-11-10T04:06:37.774Z,5.00
2022-11-10T04:09:06.747Z,5.27
2022-11-10T04:11:51.665Z,5.00
2022-11-10T04:14:38.403Z,4.33
2022-11-10T04:17:06.567Z,6.33
2022-11-10T04:19:34.636Z,2.97
2022-11-10T04:22:02.797Z,4.87
2022-11-10T04:24:30.925Z,4.10
2022-11-10T04:26:59.053Z,5.23
2022-11-10T04:29:28.562Z,4.37
2022-11-10T04:31:56.690Z,3.57
2022-11-10T04:34:24.763Z,3.87
2022-11-10T04:36:52.905Z,5.07
2022-11-10T04:39:21.027Z,5.57
2022-11-10T04:41:49.111Z,4.23
2022-11-10T04:44:17.177Z,9.03
2022-11-10T04:46:46.679Z,6.23
2022-11-10T04:49:14.791Z,3.77
2022-11-10T04:51:42.951Z,4.37
2022-11-10T04:54:12.927Z,2.47
2022-11-10T04:56:41.255Z,4.73
2022-11-10T04:59:09.530Z,5.83
2022-11-10T05:01:37.621Z,6.20
2022-11-10T05:04:07.275Z,5.80
2022-11-10T05:06:35.492Z,5.17
2022-11-10T05:09:03.701Z,3.67
2022-11-10T05:11:31.863Z,3.70
2022-11-10T05:13:59.951Z,4.03
2022-11-10T05:16:28.131Z,3.70
2022-11-10T05:18:58.163Z,4.03
2022-11-10T05:21:27.763Z,6.60
2022-11-10T05:23:55.846Z,7.40
2022-11-10T05:26:23.983Z,4.20
2022-11-10T05:28:52.111Z,5.93
2022-11-10T05:31:20.208Z,4.00
2022-11-10T05:33:48.290Z,6.43
2022-11-10T05:36:16.468Z,4.03
2022-11-10T05:38:45.916Z,4.87
2022-11-10T05:41:14.004Z,5.67
2022-11-10T05:43:42.160Z,3.83
2022-11-10T05:46:10.341Z,4.97
2022-11-10T05:48:38.446Z,4.43
2022-11-10T05:51:07.070Z,5.93
2022-11-10T05:53:35.220Z,3.63
2022-11-10T05:56:04.841Z,4.63
2022-11-10T05:58:33.005Z,5.27
2022-11-10T06:01:01.125Z,3.90
2022-11-10T06:03:29.301Z,2.43
2022-11-10T06:05:58.039Z,9.90
2022-11-10T06:08:26.155Z,5.53
2022-11-10T06:10:54.575Z,4.20
2022-11-10T06:13:24.323Z,4.30
2022-11-10T06:15:52.715Z,6.00
2022-11-10T06:18:20.846Z,6.53
2022-11-10T06:20:49.129Z,5.43
2022-11-10T06:23:17.270Z,4.67
2022-11-10T06:25:45.576Z,5.03
2022-11-10T06:28:14.751Z,4.73
2022-11-10T06:30:44.333Z,5.13
2022-11-10T06:33:12.496Z,4.33
2022-11-10T06:35:40.649Z,4.50
2022-11-10T06:38:12.543Z,6.00
2022-11-10T06:40:40.658Z,3.77
2022-11-10T06:43:08.807Z,3.03
2022-11-10T06:45:36.924Z,3.77
2022-11-10T06:48:09.238Z,2.83
2022-11-10T06:50:37.298Z,9.23
2022-11-10T06:53:05.541Z,5.07
2022-11-10T06:55:33.921Z,4.20
2022-11-10T06:58:02.348Z,7.07
2022-11-10T07:00:31.306Z,8.90
2022-11-10T07:03:03.969Z,3.30
2022-11-10T07:05:35.948Z,5.10
2022-11-10T07:08:05.915Z,6.57
2022-11-10T07:10:35.330Z,3.60
2022-11-10T07:13:05.638Z,4.33
2022-11-10T07:15:34.534Z,7.40
2022-11-10T07:18:03.622Z,10.07
2022-11-10T07:20:33.564Z,4.33
2022-11-10T07:23:04.056Z,8.10
2022-11-10T07:25:35.483Z,6.73
2022-11-10T07:28:06.640Z,4.53
2022-11-10T07:30:36.350Z,6.53
2022-11-10T07:33:08.194Z,7.37
2022-11-10T07:35:38.670Z,4.37
2022-11-10T07:38:10.132Z,6.47
2022-11-10T07:40:39.602Z,8.87
2022-11-10T07:43:07.797Z,5.30
2022-11-10T07:45:35.945Z,4.30
2022-11-10T07:48:07.431Z,7.80
2022-11-10T07:50:37.107Z,5.00
2022-11-10T07:53:07.809Z,5.03
2022-11-10T07:55:38.062Z,4.23
2022-11-10T07:58:07.242Z,4.50
2022-11-10T08:00:36.690Z,6.33
2022-11-10T08:03:07.041Z,8.80
2022-11-10T08:05:37.144Z,4.80
2022-11-10T08:08:06.658Z,8.20
2022-11-10T08:10:35.970Z,4.93
2022-11-10T08:13:06.960Z,6.97
2022-11-10T08:15:36.003Z,5.03
2022-11-10T08:18:06.992Z,4.43
2022-11-10T08:20:36.992Z,5.80
2022-11-10T08:23:07.671Z,5.47
2022-11-10T08:25:38.239Z,4.53
2022-11-10T08:28:09.044Z,7.77
2022-11-10T08:30:39.151Z,4.17
2022-11-10T08:33:09.918Z,5.83
2022-11-10T08:35:42.297Z,5.80
2022-11-10T08:38:12.349Z,6.75
2022-11-10T08:40:41.533Z,6.37
2022-11-10T08:43:11.726Z,5.70
2022-11-10T08:45:42.228Z,2.95
2022-11-10T08:48:13.863Z,6.37
2022-11-10T08:50:44.177Z,7.23
2022-11-10T08:53:15.459Z,5.47
2022-11-10T08:55:45.426Z,5.47
2022-11-10T08:58:16.530Z,8.03
2022-11-10T09:00:44.965Z,6.07
2022-11-10T09:03:16.928Z,7.03
2022-11-10T09:05:47.982Z,6.13
2022-11-10T09:08:17.129Z,8.07
2022-11-10T09:10:49.835Z,4.07
2022-11-10T09:13:26.091Z,4.87
2022-11-10T09:15:57.894Z,6.90
2022-11-10T09:18:26.053Z,7.10
2022-11-10T09:20:55.490Z,4.43
2022-11-10T09:23:25.215Z,4.67
2022-11-10T09:25:57.254Z,4.70
2022-11-10T09:28:26.318Z,3.23
2022-11-10T09:30:54.465Z,6.43
2022-11-10T09:33:22.872Z,4.50
2022-11-10T09:35:51.600Z,6.83
2022-11-10T09:38:21.501Z,5.50
2022-11-10T09:41:00.942Z,7.67
2022-11-10T09:43:38.551Z,4.27
2022-11-10T09:46:17.212Z,4.33
2022-11-10T09:48:53.067Z,6.40
2022-11-10T09:51:25.963Z,7.32
2022-11-10T09:53:59.772Z,6.05
2022-11-10T09:56:34.039Z,6.80
2022-11-10T09:59:07.811Z,6.30
2022-11-10T10:01:48.238Z,5.70
2022-11-10T10:04:51.528Z,5.05
2022-11-10T10:07:30.626Z,6.65
2022-11-10T10:10:17.125Z,7.67
2022-11-10T10:13:08.222Z,6.00
2022-11-10T10:15:50.645Z,7.40
2022-11-10T10:18:32.919Z,5.60
2022-11-10T10:21:22.275Z,5.93
2022-11-10T10:24:09.468Z,7.20
2022-11-10T10:26:51.600Z,6.18
2022-11-10T10:29:24.694Z,4.13
2022-11-10T10:31:54.137Z,4.88
2022-11-10T10:34:28.381Z,6.00
2022-11-10T10:36:56.575Z,6.25
2022-11-10T10:39:34.835Z,6.68
2022-11-10T10:42:19.622Z,6.30
2022-11-10T10:45:20.717Z,6.97
2022-11-10T10:47:51.717Z,7.22
2022-11-10T10:50:42.894Z,6.45
2022-11-10T10:53:16.684Z,4.30
2022-11-10T10:55:59.735Z,8.55
2022-11-10T10:58:31.656Z,6.78
2022-11-10T11:01:06.361Z,5.47
2022-11-10T11:03:44.613Z,5.60
2022-11-10T11:06:27.116Z,4.72
2022-11-10T11:09:00.012Z,7.25
2022-11-10T11:11:32.168Z,6.40
2022-11-10T11:14:22.144Z,6.70
2022-11-10T11:16:53.488Z,6.60
2022-11-10T11:19:24.679Z,6.28
2022-11-10T11:22:24.486Z,6.85
2022-11-10T11:25:06.376Z,7.43
2022-11-10T11:27:52.005Z,6.10
2022-11-10T11:30:24.504Z,4.60
2022-11-10T11:33:15.511Z,7.43
2022-11-10T11:35:51.080Z,5.60
2022-11-10T11:38:32.465Z,7.57
2022-11-10T11:41:20.385Z,7.65
2022-11-10T11:44:16.674Z,4.68
2022-11-10T11:47:03.409Z,5.40
2022-11-10T11:50:14.442Z,6.43
2022-11-10T11:52:58.704Z,6.15
2022-11-10T11:55:48.405Z,6.10
2022-11-10T11:58:37.612Z,5.18
2022-11-10T12:01:27.755Z,6.35
2022-11-10T12:04:37.117Z,6.13
2022-11-10T12:07:24.769Z,6.82
2022-11-10T12:10:07.817Z,6.38
2022-11-10T12:13:12.216Z,5.25
2022-11-10T12:15:54.346Z,9.43
2022-11-10T12:18:32.324Z,5.78
2022-11-10T12:21:23.071Z,5.72
2022-11-10T12:24:21.344Z,5.45
2022-11-10T12:26:59.814Z,6.78
2022-11-10T12:29:38.553Z,3.95
2022-11-10T12:32:18.395Z,4.30
2022-11-10T12:34:54.792Z,3.58
2022-11-10T12:37:33.190Z,3.20
2022-11-10T12:40:15.445Z,5.30
2022-11-10T12:42:48.062Z,4.28
2022-11-10T12:45:24.692Z,5.78
2022-11-10T12:47:54.443Z,3.58
2022-11-10T12:50:49.964Z,3.72
2022-11-10T12:53:25.140Z,3.15
2022-11-10T12:56:00.713Z,5.40
2022-11-10T12:58:30.802Z,6.80
2022-11-10T13:01:04.621Z,6.55
2022-11-10T13:03:37.146Z,5.43
2022-11-10T13:06:08.275Z,9.10
2022-11-10T13:08:49.674Z,5.22
2022-11-10T13:11:37.339Z,4.55
2022-11-10T13:14:21.936Z,7.45
2022-11-10T13:16:54.263Z,5.22
2022-11-10T13:19:52.209Z,5.70
2022-11-10T13:22:40.809Z,7.50
2022-11-10T13:25:55.151Z,5.38
2022-11-10T13:29:20.943Z,6.15
2022-11-10T13:31:54.947Z,3.88
2022-11-10T13:34:35.066Z,5.07
2022-11-10T13:37:05.280Z,5.47
2022-11-10T13:39:34.924Z,5.68
2022-11-10T13:42:23.367Z,4.72
2022-11-10T13:44:53.861Z,6.70
2022-11-10T13:47:52.759Z,4.20
2022-11-10T13:50:35.312Z,7.70
2022-11-10T13:53:28.489Z,7.10
2022-11-10T13:56:17.028Z,3.90
2022-11-10T13:58:47.287Z,6.43
2022-11-10T14:01:28.207Z,6.75
2022-11-10T14:04:02.519Z,4.57
2022-11-10T14:06:44.430Z,6.28
2022-11-10T14:09:28.991Z,6.18
2022-11-10T14:12:05.907Z,6.78
2022-11-10T14:14:50.224Z,6.05
2022-11-10T14:17:24.816Z,4.88
2022-11-10T14:19:52.977Z,6.03
2022-11-10T14:22:29.076Z,4.15
2022-11-10T14:25:06.554Z,6.13
2022-11-10T14:27:39.344Z,5.50
2022-11-10T14:30:24.835Z,4.70
2022-11-10T14:33:00.103Z,5.43
2022-11-10T14:35:31.790Z,6.33
2022-11-10T14:38:01.595Z,6.07
2022-11-10T14:40:31.052Z,4.30
2022-11-10T14:43:01.180Z,5.35
2022-11-10T14:45:31.025Z,7.30
2022-11-10T14:48:01.337Z,5.03
2022-11-10T14:50:32.931Z,7.70
2022-11-10T14:53:12.980Z,5.93
2022-11-10T14:55:50.638Z,10.18
2022-11-10T14:58:27.374Z,7.18
2022-11-10T15:00:57.008Z,8.00
2022-11-10T15:03:36.939Z,9.30
2022-11-10T15:06:10.248Z,6.18
2022-11-10T15:08:40.091Z,6.18
2022-11-10T15:11:28.864Z,8.05
2022-11-10T15:13:57.021Z,7.43
2022-11-10T15:16:29.849Z,8.37
2022-11-10T15:19:21.932Z,8.17
2022-11-10T15:21:50.778Z,5.67
2022-11-10T15:24:20.177Z,5.87
2022-11-10T15:26:48.493Z,7.82
2022-11-10T15:29:25.122Z,6.97
2022-11-10T15:31:54.737Z,7.77
2022-11-10T15:34:41.459Z,8.50
2022-11-10T15:37:27.539Z,8.37
2022-11-10T15:40:34.743Z,5.97
2022-11-10T15:43:15.625Z,7.30
2022-11-10T15:45:47.454Z,6.43
2022-11-10T15:48:19.254Z,9.60
2022-11-10T15:50:51.956Z,7.33
2022-11-10T15:53:31.171Z,8.53
2022-11-10T15:55:59.310Z,6.57
2022-11-10T15:58:29.389Z,7.80
2022-11-10T16:00:57.534Z,9.33
2022-11-10T16:03:27.747Z,6.87
2022-11-10T16:05:55.917Z,8.87
2022-11-10T16:08:24.835Z,10.87
2022-11-10T16:10:57.231Z,9.03
2022-11-10T16:13:28.558Z,8.10
2022-11-10T16:15:58.548Z,6.57
2022-11-10T16:18:30.881Z,8.80
2022-11-10T16:20:59.158Z,10.03
2022-11-10T16:23:28.515Z,9.93
2022-11-10T16:25:58.890Z,9.87
2022-11-10T16:28:29.115Z,7.67
2022-11-10T16:30:57.385Z,6.47
2022-11-10T16:33:29.107Z,7.23
2022-11-10T16:35:57.846Z,9.57
2022-11-10T16:38:29.725Z,10.83
2022-11-10T16:41:00.617Z,9.07
2022-11-10T16:43:30.786Z,6.80
2022-11-10T16:46:03.147Z,8.20
2022-11-10T16:48:37.547Z,8.53
2022-11-10T16:51:06.123Z,8.10
2022-11-10T16:53:34.318Z,6.10
2022-11-10T16:56:02.425Z,11.20
2022-11-10T16:58:30.549Z,7.13
2022-11-10T17:01:02.435Z,7.07
2022-11-10T17:03:37.942Z,6.40
2022-11-10T17:06:06.903Z,7.80
2022-11-10T17:08:41.698Z,9.17
2022-11-10T17:11:11.043Z,8.80
2022-11-10T17:13:39.383Z,7.27
2022-11-10T17:16:22.828Z,8.87
2022-11-10T17:18:52.772Z,7.50
2022-11-10T17:21:24.459Z,6.70
2022-11-10T17:23:54.661Z,7.93
2022-11-10T17:26:23.152Z,5.37
2022-11-10T17:28:51.266Z,7.80
2022-11-10T17:31:19.411Z,8.37
2022-11-10T17:33:47.541Z,10.97
2022-11-10T17:36:22.088Z,11.20
2022-11-10T17:38:51.808Z,7.07
2022-11-10T17:41:21.789Z,7.10
2022-11-10T17:43:49.920Z,9.00
2022-11-10T17:46:18.132Z,8.47
2022-11-10T17:48:47.614Z,11.40
2022-11-10T17:51:21.852Z,7.70
2022-11-10T17:53:50.647Z,9.87
2022-11-10T17:56:19.007Z,11.03
2022-11-10T17:58:47.095Z,8.73
2022-11-10T18:01:22.060Z,5.23
2022-11-10T18:03:51.191Z,10.40
2022-11-10T18:06:22.167Z,11.03
2022-11-10T18:08:50.257Z,8.70
2022-11-10T18:11:20.150Z,8.80
2022-11-10T18:13:48.365Z,10.17
2022-11-10T18:16:16.577Z,6.67
2022-11-10T18:18:44.685Z,6.37
2022-11-10T18:21:13.082Z,9.40
2022-11-10T18:23:44.501Z,8.10
2022-11-10T18:26:12.715Z,7.77
2022-11-10T18:28:42.075Z,8.30
2022-11-10T18:31:12.503Z,10.07
2022-11-10T18:33:41.103Z,10.60
2022-11-10T18:36:10.069Z,8.27
2022-11-10T18:38:38.224Z,6.50
2022-11-10T18:41:26.013Z,6.57
2022-11-10T18:43:54.269Z,8.60
2022-11-10T18:46:22.380Z,9.17
2022-11-10T18:48:50.588Z,9.37
2022-11-10T18:51:18.833Z,6.57
2022-11-10T18:53:46.961Z,9.03
2022-11-10T18:56:16.470Z,7.37
2022-11-10T18:58:44.639Z,7.53
2022-11-10T19:01:13.067Z,8.70
2022-11-10T19:03:42.680Z,7.57
2022-11-10T19:06:12.375Z,10.60
2022-11-10T19:08:41.093Z,11.87
2022-11-10T19:11:11.923Z,9.77
2022-11-10T19:13:41.768Z,13.80
2022-11-10T19:16:13.067Z,10.57
2022-11-10T19:18:43.193Z,11.97
2022-11-10T19:21:15.037Z,9.50
2022-11-10T19:23:44.066Z,10.83
2022-11-10T19:26:20.904Z,9.87
2022-11-10T19:28:53.473Z,8.77
2022-11-10T19:31:22.807Z,10.13
2022-11-10T19:33:54.052Z,7.13
2022-11-10T19:36:24.521Z,10.63
2022-11-10T19:38:54.460Z,9.53
2022-11-10T19:41:26.599Z,9.70
2022-11-10T19:43:57.372Z,9.93
2022-11-10T19:46:27.959Z,9.67
2022-11-10T19:48:57.853Z,8.07
2022-11-10T19:51:28.492Z,11.13
2022-11-10T19:54:01.280Z,8.03
2022-11-10T19:56:32.330Z,13.00
2022-11-10T19:59:02.089Z,9.57
2022-11-10T20:01:32.423Z,8.17
2022-11-10T20:04:01.623Z,9.37
2022-11-10T20:06:29.788Z,10.07
2022-11-10T20:08:57.952Z,10.17
2022-11-10T20:11:27.722Z,6.33
2022-11-10T20:13:59.037Z,9.27
2022-11-10T20:16:28.676Z,10.57
2022-11-10T20:18:57.078Z,10.97
2022-11-10T20:21:25.191Z,8.57
2022-11-10T20:23:54.789Z,7.37
2022-11-10T20:26:24.772Z,8.33
2022-11-10T20:28:52.911Z,10.10
2022-11-10T20:31:26.189Z,9.83
2022-11-10T20:33:57.938Z,10.17
2022-11-10T20:36:29.188Z,7.87
2022-11-10T20:39:00.393Z,10.17
2022-11-10T20:41:32.809Z,12.17
2022-11-10T20:44:00.945Z,8.53
2022-11-10T20:49:18.628Z,11.40
2022-11-10T20:51:46.760Z,12.00
2022-11-10T20:54:17.242Z,9.63
2022-11-10T20:56:45.388Z,11.53
2022-11-10T20:59:13.519Z,9.00
2022-11-10T21:01:41.776Z,7.63
2022-11-10T21:04:10.845Z,8.73
2022-11-10T21:06:40.952Z,7.40
2022-11-10T21:09:09.362Z,7.23
2022-11-10T21:11:55.114Z,11.37
2022-11-10T21:14:23.936Z,7.90
2022-11-10T21:16:52.162Z,7.97
2022-11-10T21:19:20.296Z,9.23
2022-11-10T21:21:51.054Z,9.07
2022-11-10T21:24:19.169Z,11.00
2022-11-10T21:26:47.323Z,8.17
2022-11-10T21:29:15.456Z,8.73
2022-11-10T21:31:44.287Z,7.43
2022-11-10T21:34:12.599Z,6.40
2022-11-10T21:36:41.445Z,10.43
2022-11-10T21:39:11.163Z,9.13
2022-11-10T21:41:39.305Z,10.57
2022-11-10T21:44:07.449Z,9.77
2022-11-10T21:46:35.593Z,9.00
2022-11-10T21:49:07.618Z,9.67
2022-11-10T21:51:36.443Z,9.67
2022-11-10T21:54:04.711Z,8.73
2022-11-10T21:56:34.203Z,8.27
2022-11-10T21:59:02.358Z,9.93
2022-11-10T22:01:30.564Z,7.87
2022-11-10T22:03:58.700Z,9.03
2022-11-10T22:06:48.539Z,8.53
2022-11-10T22:09:36.791Z,10.87
2022-11-10T22:12:25.449Z,9.67
2022-11-10T22:15:11.163Z,10.37
2022-11-10T22:17:57.046Z,8.13
2022-11-10T22:20:25.210Z,8.30
2022-11-10T22:22:53.328Z,8.27
2022-11-10T22:25:21.523Z,7.57
2022-11-10T22:27:50.981Z,9.40
2022-11-10T22:30:19.359Z,9.27
2022-11-10T22:32:47.503Z,12.43
2022-11-10T22:35:35.736Z,8.33
2022-11-10T22:38:08.046Z,9.13
2022-11-10T22:40:55.334Z,7.93
2022-11-10T22:43:42.280Z,9.00
2022-11-10T22:46:10.428Z,10.13
2022-11-10T22:48:38.639Z,10.57
2022-11-10T22:51:07.089Z,11.97
2022-11-10T22:53:38.301Z,11.60
2022-11-10T22:56:06.865Z,9.70
2022-11-10T22:58:36.348Z,11.27
2022-11-10T23:01:06.207Z,10.80
2022-11-10T23:03:35.144Z,9.43
2022-11-10T23:06:03.686Z,9.90
2022-11-10T23:08:32.491Z,9.43
2022-11-10T23:11:02.810Z,8.60
2022-11-10T23:13:31.372Z,7.63
2022-11-10T23:16:04.736Z,8.00
2022-11-10T23:18:33.100Z,9.97
2022-11-10T23:21:03.452Z,8.93
2022-11-10T23:23:34.337Z,8.37
2022-11-10T23:26:06.264Z,10.00
2022-11-10T23:28:36.387Z,9.13
2022-11-10T23:31:08.970Z,11.57
2022-11-10T23:33:38.823Z,11.40
2022-11-10T23:36:10.248Z,9.87
2022-11-10T23:38:39.466Z,8.67
2022-11-10T23:41:13.146Z,7.60
2022-11-10T23:43:41.296Z,10.47
2022-11-10T23:46:11.449Z,13.43
2022-11-10T23:48:41.251Z,6.53
2022-11-10T23:51:12.787Z,11.77
2022-11-10T23:53:41.718Z,9.37
2022-11-10T23:56:14.080Z,7.77
2022-11-10T23:58:42.409Z,11.47
